Mercer, WI

3:35 AM CDT on March 26, 2017 (GMT -0500)
Pine Lake ,Town of Oma | | Change Station
Active Advisory: Winter Weather Advisory

Elev 1604 ft 46.25 °N, 90.13 °W | Updated 4 seconds ago

Ice Pellets
Ice Pellets
32.7 °F
Feels Like 33 °F
N
0.0
Wind Variable Wind from ESE
Gusts 0.0 mph

Today
High -- | Low -- °F
--% Chance of Precip.
Yesterday
High -- | Low -- °F
Precip. -- in
Pressure 30.00 in
Visibility 7.0 miles
Clouds Overcast 500 ft
Windchill 33 °F
Dew Point 29 °F
Humidity 87%
Rainfall 0.04 in
Snow Depth Not available.
6:51 AM 7:21 PM
Waning Crescent, 4% visible
METAR KD25 260815Z AUTO 00000KT 7SM OVC005 00/00 A3000 RMK AO2 T10011001
Pressure 30.00 in
Visibility 7.0 miles
Clouds Overcast 500 ft
Windchill 33 °F
Dew Point 29 °F
Humidity 87%
Rainfall 0.04 in
Snow Depth Not available.
6:51 AM 7:21 PM
Waning Crescent, 4% visible
METAR KD25 260815Z AUTO 00000KT 7SM OVC005 00/00 A3000 RMK AO2 T10011001

Get Your Daily Forecast Email!

Thanks for signing up!

Be on the lookout for a verification email in your inbox.

You'll start receiving severe weather alerts in your inbox..

×

10-Day Weather Forecast

Almanac

Astronomy

Mar. 26, 2017 Rise Set
Actual Time
Civil Twilight
Nautical Twilight
Astronomical Twilight
Moon
Length of Visible Light
Length of Day
Tomorrow will be .
, % of the Moon is Illuminated

Today's Extremes

State Highs State Lows

Community

WunderPhotos

Upload Photos

1,962,540 photos uploaded!

WunderBlog® & News

Nearby

Air Quality

  Air Quality AQ Index Pollutant
Not available.

Snow Depth

Station Depth Elevation

Earthquake Activity

City Distance Mag. Time & Date
Minimum magnitude displayed is 2.5.

Earthquake Activity

City Distance Mag. Time & Date
Minimum magnitude displayed is 2.5.

Coastal Water Temperatures

Place Temperature

Stations

Nearby Weather Stations

Station Location Temp. Windchill Dew Point Humidity Wind Precip. Elev Updated Type
                   

Watches & Warnings

Winter Weather Advisory
Issued: 3:33 AM CDT Mar. 26, 2017 – National Weather Service

... Winter Weather Advisory remains in effect until 9 am CDT this
morning...

* locations... all of Iron County.

* Ice accumulations... up to five hundredths of an inch.

* Impacts... ice accumulation will create slippery conditions,
especially on untreated roads, bridges, and sidewalks.

Precautionary/preparedness actions...

A Winter Weather Advisory for mixed precipitation means freezing
rain, snow, or sleet is expected. Accumulations of snow and ice
are likely on untreated roads and sidewalks. Anyone with travel
plans should be prepared for slippery or hazardous roads. Slow
down when driving and allow for extra stopping distance.



Huyck